Time;durP1;ratioP1;P1;durP2;ratioP2;P2;SDS_P1;SDS_P2;PMS_P1;PMS_P2;Temp;Humidity;BMP_temperature;BMP_pressure;BME280_temperature;BME280_humidity;BME280_pressure;Samples;Min_cycle;Max_cycle;Signal;HPM_P1;HPM_P2
2023/01/05 09:23:06;;;;;;;;;26.50;25.00;;;;;;;;5124195;27;13379;-66
2023/01/05 09:25:31;;;;;;;;;20.50;17.50;;;;;;;;5127671;27;11557;-67
2023/01/05 09:27:56;;;;;;;;;26.75;26.00;;;;;;;;5123059;27;11454;-68
2023/01/05 09:30:21;;;;;;;;;22.00;16.50;;;;;;;;5112516;28;9578;-66
2023/01/05 09:32:47;;;;;;;;;25.50;23.00;;;;;;;;5106854;28;8790;-69
2023/01/05 09:35:12;;;;;;;;;25.00;21.75;;;;;;;;5107010;28;8805;-67
2023/01/05 09:37:37;;;;;;;;;27.50;21.50;;;;;;;;5105590;28;8802;-67
2023/01/05 09:40:02;;;;;;;;;27.75;20.00;;;;;;;;5104871;28;8812;-68
2023/01/05 09:42:31;;;;;;;;;25.25;21.00;;;;;;;;5104786;28;8852;-66
2023/01/05 09:44:59;;;;;;;;;23.50;21.50;;;;;;;;5123537;27;8804;-66
2023/01/05 09:47:30;;;;;;;;;26.00;21.25;;;;;;;;5146225;27;11432;-67
2023/01/05 09:49:56;;;;;;;;;22.00;19.75;;;;;;;;5127653;27;11427;-67
2023/01/05 09:52:22;;;;;;;;;19.25;19.25;;;;;;;;5146226;27;11547;-67
2023/01/05 09:54:47;;;;;;;;;24.75;23.00;;;;;;;;5146383;27;11456;-67
2023/01/05 09:57:24;;;;;;;;;22.50;22.25;;;;;;;;5126670;27;8797;-66
2023/01/05 09:59:51;;;;;;;;;29.75;24.00;;;;;;;;5126478;27;8771;-66
2023/01/05 10:02:32;;;;;;;;;21.00;18.00;;;;;;;;5125299;27;11688;-68
2023/01/05 10:04:58;;;;;;;;;16.50;16.50;;;;;;;;5126669;27;11572;-66
2023/01/05 10:07:24;;;;;;;;;26.25;20.25;;;;;;;;5126408;27;11509;-67
2023/01/05 10:09:51;;;;;;;;;21.75;19.50;;;;;;;;5108341;27;11690;-66
2023/01/05 10:15:08;;;;;;;;;19.75;19.50;;;;;;;;5125633;27;12301;-67
2023/01/05 10:17:35;;;;;;;;;22.00;18.00;;;;;;;;5124404;27;13498;-68
2023/01/05 10:20:00;;;;;;;;;22.25;19.50;;;;;;;;5122177;27;11667;-69
2023/01/05 10:22:30;;;;;;;;;17.75;17.75;;;;;;;;5123619;27;11551;-68
2023/01/05 10:24:55;;;;;;;;;16.75;16.50;;;;;;;;5124946;27;8926;-69
2023/01/05 10:27:28;;;;;;;;;18.25;16.25;;;;;;;;5124537;27;11574;-69
2023/01/05 10:30:15;;;;;;;;;15.25;15.25;;;;;;;;5124800;27;8847;-69
2023/01/05 10:32:43;;;;;;;;;50.75;41.50;;;;;;;;5117148;27;11494;-69
2023/01/05 10:35:27;;;;;;;;;21.00;18.75;;;;;;;;5110994;28;11462;-70
2023/01/05 10:38:10;;;;;;;;;28.75;25.25;;;;;;;;5109496;28;11579;-70
2023/01/05 10:40:41;;;;;;;;;13.75;13.25;;;;;;;;5110090;28;11541;-70
2023/01/05 10:43:25;;;;;;;;;16.75;16.25;;;;;;;;5109546;27;11479;-69
2023/01/05 10:45:50;;;;;;;;;17.25;15.00;;;;;;;;5109780;27;11520;-68
2023/01/05 10:48:18;;;;;;;;;14.00;14.00;;;;;;;;5111684;28;11548;-67
2023/01/05 10:50:45;;;;;;;;;18.25;13.00;;;;;;;;4974793;28;11607;-71
2023/01/05 10:53:10;;;;;;;;;16.00;16.00;;;;;;;;5027261;28;11669;-69
2023/01/05 10:55:40;;;;;;;;;11.50;10.00;;;;;;;;5029467;28;11551;-68
2023/01/05 10:58:19;;;;;;;;;11.75;11.00;;;;;;;;5010777;28;8885;-68
2023/01/05 11:00:44;;;;;;;;;11.00;10.00;;;;;;;;5044795;28;11565;-69
2023/01/05 11:03:13;;;;;;;;;13.00;10.50;;;;;;;;5027963;28;11579;-72
2023/01/05 11:05:44;;;;;;;;;12.00;11.00;;;;;;;;5011934;28;10174;-68
2023/01/05 11:08:17;;;;;;;;;9.75;9.75;;;;;;;;5027389;28;11493;-68
2023/01/05 11:10:48;;;;;;;;;7.00;7.00;;;;;;;;5031241;28;11353;-67
2023/01/05 11:13:27;;;;;;;;;9.00;8.00;;;;;;;;5029093;28;11343;-67
2023/01/05 11:15:55;;;;;;;;;7.50;7.00;;;;;;;;5030195;28;11462;-67
2023/01/05 11:18:26;;;;;;;;;9.75;7.75;;;;;;;;5012823;28;12174;-67
2023/01/05 11:21:09;;;;;;;;;8.00;6.50;;;;;;;;5030512;28;11436;-67
2023/01/05 11:23:39;;;;;;;;;8.00;8.00;;;;;;;;5028806;28;11456;-66
2023/01/05 11:26:30;;;;;;;;;6.00;6.00;;;;;;;;5030243;28;11345;-68
2023/01/05 11:28:55;;;;;;;;;;;;;;;;;;5029004;28;11646;-67
2023/01/05 11:31:20;;;;;;;;;;;;;;;;;;5032466;28;7536;-68
2023/01/05 11:33:45;;;;;;;;;;;;;;;;;;5029038;28;7525;-70
2023/01/05 11:36:10;;;;;;;;;;;;;;;;;;5032002;28;7547;-68
2023/01/05 11:38:35;;;;;;;;;;;;;;;;;;5031965;28;7647;-67
2023/01/05 11:41:01;;;;;;;;;;;;;;;;;;5032006;28;7537;-68
2023/01/05 11:43:26;;;;;;;;;;;;;;;;;;5030272;28;7537;-67
2023/01/05 11:45:52;;;;;;;;;;;;;;;;;;5030846;28;7525;-67
2023/01/05 11:48:17;;;;;;;;;;;;;;;;;;5031614;28;7536;-67
2023/01/05 11:50:42;;;;;;;;;;;;;;;;;;5031972;28;7548;-67
2023/01/05 11:53:20;;;;;;;;;6.60;4.00;;;;;;;;5028094;28;7518;-66
2023/01/05 11:55:45;;;;;;;;;4.00;4.00;;;;;;;;5030307;28;8841;-67
2023/01/05 11:58:16;;;;;;;;;4.75;4.00;;;;;;;;5029674;28;10013;-66
2023/01/05 12:01:00;;;;;;;;;4.50;4.50;;;;;;;;5030106;28;8803;-67
2023/01/05 12:03:44;;;;;;;;;4.00;4.00;;;;;;;;5011862;28;10161;-67
2023/01/05 12:06:16;;;;;;;;;5.50;4.50;;;;;;;;5012020;28;10726;-67
2023/01/05 12:08:48;;;;;;;;;6.50;5.00;;;;;;;;5029686;28;10989;-67
2023/01/05 12:11:18;;;;;;;;;6.75;6.75;;;;;;;;5029564;28;10389;-66
2023/01/05 12:13:48;;;;;;;;;6.00;6.00;;;;;;;;5029617;28;10596;-67
2023/01/05 12:16:33;;;;;;;;;6.25;6.25;;;;;;;;5029462;28;10786;-69
2023/01/05 12:19:04;;;;;;;;;7.00;7.00;;;;;;;;5011654;28;10870;-67
2023/01/05 12:21:37;;;;;;;;;5.50;5.50;;;;;;;;5021669;28;10761;-68
2023/01/05 12:24:12;;;;;;;;;7.00;6.00;;;;;;;;5010044;28;10639;-69
2023/01/05 12:26:42;;;;;;;;;3.75;3.75;;;;;;;;5003412;28;10753;-68
2023/01/05 12:29:07;;;;;;;;;7.25;7.25;;;;;;;;5028331;28;11618;-69
2023/01/05 12:31:35;;;;;;;;;7.75;7.50;;;;;;;;5029449;28;10706;-67
2023/01/05 12:34:19;;;;;;;;;6.75;5.50;;;;;;;;5029661;28;8775;-67
2023/01/05 12:37:03;;;;;;;;;7.00;6.00;;;;;;;;5029353;28;10696;-68
2023/01/05 12:39:37;;;;;;;;;7.50;7.00;;;;;;;;5029399;28;10773;-70
2023/01/05 12:42:02;;;;;;;;;7.25;6.50;;;;;;;;5029560;28;10945;-69
2023/01/05 12:44:36;;;;;;;;;7.50;4.00;;;;;;;;5030742;28;10793;-69
2023/01/05 12:47:09;;;;;;;;;4.00;4.00;;;;;;;;5009965;28;9563;-68
2023/01/05 12:49:50;;;;;;;;;4.00;4.00;;;;;;;;5019345;28;10900;-68
2023/01/05 12:52:18;;;;;;;;;7.25;4.00;;;;;;;;5028974;28;10988;-68
2023/01/05 12:54:49;;;;;;;;;4.25;4.25;;;;;;;;5028788;28;11084;-67
2023/01/05 12:57:21;;;;;;;;;6.75;4.50;;;;;;;;5027760;28;11357;-68
2023/01/05 12:59:46;;;;;;;;;7.25;6.00;;;;;;;;5027201;28;11117;-69
2023/01/05 13:02:14;;;;;;;;;7.25;5.50;;;;;;;;5028592;28;10995;-69
2023/01/05 13:05:01;;;;;;;;;5.00;5.00;;;;;;;;5028029;28;8924;-68
2023/01/05 13:07:53;;;;;;;;;4.50;4.50;;;;;;;;5011099;28;10923;-68
2023/01/05 13:10:21;;;;;;;;;4.25;3.75;;;;;;;;5024181;28;11109;-69
2023/01/05 13:12:50;;;;;;;;;7.25;4.00;;;;;;;;5029184;28;11020;-67
2023/01/05 13:15:20;;;;;;;;;7.00;6.00;;;;;;;;5029080;28;11323;-69
2023/01/05 13:17:47;;;;;;;;;6.00;6.00;;;;;;;;5029359;28;11567;-70
2023/01/05 13:20:26;;;;;;;;;5.75;5.00;;;;;;;;5027140;28;11044;-68
2023/01/05 13:22:54;;;;;;;;;5.75;4.00;;;;;;;;5029019;28;11016;-71
2023/01/05 13:25:24;;;;;;;;;4.00;4.00;;;;;;;;5029217;28;11134;-68
2023/01/05 13:27:49;;;;;;;;;5.50;5.50;;;;;;;;5011233;28;11144;-70
2023/01/05 13:30:31;;;;;;;;;7.25;6.25;;;;;;;;5027297;28;11152;-70
2023/01/05 13:33:15;;;;;;;;;6.75;6.75;;;;;;;;5029340;28;9567;-68
2023/01/05 13:35:40;;;;;;;;;6.25;6.25;;;;;;;;5028208;28;11080;-68
2023/01/05 13:38:20;;;;;;;;;12.50;6.75;;;;;;;;5022431;28;11021;-69
2023/01/05 13:40:52;;;;;;;;;6.75;6.75;;;;;;;;5026750;28;8838;-69
2023/01/05 13:43:37;;;;;;;;;7.00;7.00;;;;;;;;5026618;28;11053;-69
2023/01/05 13:46:21;;;;;;;;;6.00;6.00;;;;;;;;5008509;28;11087;-68
2023/01/05 13:49:05;;;;;;;;;6.75;6.00;;;;;;;;5024780;28;11208;-69
2023/01/05 13:51:50;;;;;;;;;6.25;4.00;;;;;;;;5026299;28;11066;-70
2023/01/05 13:54:18;;;;;;;;;12.75;7.75;;;;;;;;5008834;28;10954;-70
2023/01/05 13:56:45;;;;;;;;;5.00;5.00;;;;;;;;5028300;28;11247;-69
2023/01/05 13:59:22;;;;;;;;;7.00;7.00;;;;;;;;5026931;28;10916;-70
2023/01/05 14:01:48;;;;;;;;;11.50;9.75;;;;;;;;5028518;28;11464;-69
2023/01/05 14:04:20;;;;;;;;;9.00;7.75;;;;;;;;5028456;28;11360;-69
2023/01/05 14:06:47;;;;;;;;;11.00;8.50;;;;;;;;5024512;28;8826;-70
2023/01/05 14:09:16;;;;;;;;;7.00;7.00;;;;;;;;5030266;28;11480;-69
2023/01/05 14:11:59;;;;;;;;;8.00;8.00;;;;;;;;5032352;28;11358;-68
2023/01/05 14:14:26;;;;;;;;;9.00;6.00;;;;;;;;5032362;28;11384;-68
2023/01/05 14:16:52;;;;;;;;;11.50;7.50;;;;;;;;5013951;28;12161;-68
2023/01/05 14:19:25;;;;;;;;;6.50;6.50;;;;;;;;5030644;28;11409;-68
2023/01/05 14:21:58;;;;;;;;;11.00;9.00;;;;;;;;5032229;28;11091;-68
2023/01/05 14:24:35;;;;;;;;;8.50;7.00;;;;;;;;5014784;28;12121;-67
2023/01/05 14:27:08;;;;;;;;;8.00;6.00;;;;;;;;5032072;28;11113;-68
2023/01/05 14:29:43;;;;;;;;;10.00;7.50;;;;;;;;5012674;28;11328;-69
2023/01/05 14:32:10;;;;;;;;;8.50;8.50;;;;;;;;5032135;28;10937;-68
2023/01/05 14:34:35;;;;;;;;;5.50;4.00;;;;;;;;5030463;28;11355;-67
2023/01/05 14:37:03;;;;;;;;;3.75;3.75;;;;;;;;5031957;28;11231;-67
2023/01/05 14:39:43;;;;;;;;;5.00;5.00;;;;;;;;5030443;28;8821;-67
2023/01/05 14:42:11;;;;;;;;;4.00;4.00;;;;;;;;5031838;28;11082;-67
2023/01/05 14:44:48;;;;;;;;;5.00;4.50;;;;;;;;5032249;28;11138;-67
2023/01/05 14:47:14;;;;;;;;;5.50;4.25;;;;;;;;5031716;28;11115;-67
2023/01/05 14:50:03;;;;;;;;;6.00;4.00;;;;;;;;5030120;28;11034;-66
2023/01/05 14:52:47;;;;;;;;;6.00;5.00;;;;;;;;5030661;28;11162;-67
2023/01/05 14:55:33;;;;;;;;;5.00;5.00;;;;;;;;5031692;28;12338;-66
2023/01/05 14:58:24;;;;;;;;;6.00;6.00;;;;;;;;5031414;28;11479;-66
2023/01/05 15:00:57;;;;;;;;;5.50;4.25;;;;;;;;4989055;28;11347;-67
2023/01/05 15:03:36;;;;;;;;;4.75;4.00;;;;;;;;5012334;28;11454;-66
2023/01/05 15:06:01;;;;;;;;;1.50;1.50;;;;;;;;5025681;28;11440;-67
2023/01/05 15:08:46;;;;;;;;;5.00;5.00;;;;;;;;5029871;28;11413;-65
2023/01/05 15:11:12;;;;;;;;;7.00;4.50;;;;;;;;4991110;28;8889;-66
2023/01/05 15:17:06;;;;;;;;;5.25;5.00;;;;;;;;5031095;28;8913;-67
2023/01/05 15:19:37;;;;;;;;;7.25;5.00;;;;;;;;4958350;28;11386;-68
2023/01/05 15:22:26;;;;;;;;;4.50;4.50;;;;;;;;4969931;28;11380;-66
2023/01/05 15:24:51;;;;;;;;;6.00;6.00;;;;;;;;4954180;28;11380;-67
2023/01/05 15:27:20;;;;;;;;;9.00;6.75;;;;;;;;4953294;28;12216;-67
2023/01/05 15:29:48;;;;;;;;;9.25;9.25;;;;;;;;4967700;28;8820;-67
2023/01/05 15:32:22;;;;;;;;;18.25;13.50;;;;;;;;4969658;28;11539;-67
2023/01/05 15:34:53;;;;;;;;;13.50;11.50;;;;;;;;4965693;28;11436;-68
2023/01/05 15:37:38;;;;;;;;;15.00;12.50;;;;;;;;4950375;28;11442;-67
2023/01/05 15:40:26;;;;;;;;;18.00;13.25;;;;;;;;4950328;28;11424;-67
2023/01/05 15:42:53;;;;;;;;;10.75;7.50;;;;;;;;4942521;28;11416;-67
2023/01/05 15:45:21;;;;;;;;;12.50;9.50;;;;;;;;4950268;28;11516;-67
2023/01/05 15:47:46;;;;;;;;;10.00;9.00;;;;;;;;4950352;28;11476;-67
2023/01/05 15:50:17;;;;;;;;;12.75;8.50;;;;;;;;4950148;28;11395;-67
2023/01/05 15:52:50;;;;;;;;;10.75;10.75;;;;;;;;4950304;28;9684;-68
2023/01/05 15:55:17;;;;;;;;;8.25;6.25;;;;;;;;4952576;28;11418;-68
2023/01/05 15:57:51;;;;;;;;;12.50;7.75;;;;;;;;5030024;28;11386;-68
2023/01/05 16:00:17;;;;;;;;;17.50;15.50;;;;;;;;5029288;28;12233;-68
2023/01/05 16:02:43;;;;;;;;;15.75;15.75;;;;;;;;5029781;28;11416;-67
2023/01/05 16:05:13;;;;;;;;;17.50;16.25;;;;;;;;5029660;28;11454;-67
2023/01/05 16:07:43;;;;;;;;;21.50;16.75;;;;;;;;5011992;28;8790;-67
2023/01/05 16:10:15;;;;;;;;;18.75;17.50;;;;;;;;5029907;28;11493;-67
2023/01/05 16:12:40;;;;;;;;;24.00;18.00;;;;;;;;5029978;28;12198;-68
2023/01/05 16:15:12;;;;;;;;;19.25;17.00;;;;;;;;5030535;28;11501;-69
2023/01/05 16:17:37;;;;;;;;;17.50;15.25;;;;;;;;5030274;28;9563;-68
2023/01/05 16:20:07;;;;;;;;;17.00;16.00;;;;;;;;5012262;28;11468;-69
2023/01/05 16:22:41;;;;;;;;;16.00;13.00;;;;;;;;5016616;28;9622;-69
2023/01/05 16:25:15;;;;;;;;;17.75;16.25;;;;;;;;5010628;28;11439;-67
2023/01/05 16:27:42;;;;;;;;;22.00;15.00;;;;;;;;5010736;28;11432;-68
2023/01/05 16:30:28;;;;;;;;;21.25;13.75;;;;;;;;4993018;28;12232;-68
2023/01/05 16:32:57;;;;;;;;;17.75;13.25;;;;;;;;5010230;28;11533;-69
2023/01/05 16:35:22;;;;;;;;;14.00;14.00;;;;;;;;5018852;28;11519;-68
2023/01/05 16:38:02;;;;;;;;;15.00;11.25;;;;;;;;5010368;28;11465;-69
2023/01/05 16:40:28;;;;;;;;;14.00;12.75;;;;;;;;5010306;28;8901;-68
2023/01/05 16:42:53;;;;;;;;;10.00;10.00;;;;;;;;5010121;28;11574;-69
2023/01/05 16:45:23;;;;;;;;;16.75;14.50;;;;;;;;5009066;28;8818;-68
2023/01/05 16:47:49;;;;;;;;;12.50;10.00;;;;;;;;4992795;28;9017;-68
2023/01/05 16:50:18;;;;;;;;;12.00;11.50;;;;;;;;4992289;28;11534;-69
2023/01/05 16:52:55;;;;;;;;;8.25;8.00;;;;;;;;5010025;28;8847;-69
2023/01/05 16:55:21;;;;;;;;;15.00;9.50;;;;;;;;5010115;28;11350;-68
2023/01/05 16:57:46;;;;;;;;;13.25;9.75;;;;;;;;5009703;28;11437;-69
2023/01/05 17:00:38;;;;;;;;;14.00;8.25;;;;;;;;5010267;28;8793;-69
2023/01/05 17:03:29;;;;;;;;;10.00;10.00;;;;;;;;5009725;28;8811;-68
2023/01/05 17:05:55;;;;;;;;;14.00;12.50;;;;;;;;5022126;28;11448;-68
2023/01/05 17:08:26;;;;;;;;;18.25;12.00;;;;;;;;5029641;28;11397;-68
2023/01/05 17:10:53;;;;;;;;;14.25;13.00;;;;;;;;5029437;28;11453;-68
2023/01/05 17:13:20;;;;;;;;;19.00;12.50;;;;;;;;5029454;28;11442;-69
2023/01/05 17:15:47;;;;;;;;;18.50;14.00;;;;;;;;5029310;28;11393;-69
2023/01/05 17:18:15;;;;;;;;;15.50;15.50;;;;;;;;5011499;28;11454;-69
2023/01/05 17:20:42;;;;;;;;;14.50;13.00;;;;;;;;5029330;28;11446;-69
2023/01/05 17:23:25;;;;;;;;;16.00;14.00;;;;;;;;5029465;28;11446;-69
2023/01/05 17:25:51;;;;;;;;;22.25;18.00;;;;;;;;5029503;28;11432;-68
2023/01/05 17:28:17;;;;;;;;;19.75;17.75;;;;;;;;5011742;28;11462;-68
2023/01/05 17:30:44;;;;;;;;;20.25;17.75;;;;;;;;5011736;28;11459;-69
2023/01/05 17:33:10;;;;;;;;;21.00;21.00;;;;;;;;5011691;28;9595;-68
2023/01/05 17:35:35;;;;;;;;;19.50;17.25;;;;;;;;5029343;28;11575;-69
2023/01/05 17:38:00;;;;;;;;;24.00;24.00;;;;;;;;5029438;28;8781;-68
2023/01/05 17:40:27;;;;;;;;;27.50;26.00;;;;;;;;5029570;28;8820;-68
2023/01/05 17:42:53;;;;;;;;;0.25;0.00;;;;;;;;5030376;28;8805;-68
2023/01/05 17:45:19;;;;;;;;;25.50;21.50;;;;;;;;5033407;28;12236;-70
2023/01/05 17:47:46;;;;;;;;;26.75;24.50;;;;;;;;5033261;28;8786;-67
2023/01/05 17:50:13;;;;;;;;;29.25;21.75;;;;;;;;5033194;28;11451;-68
2023/01/05 17:52:39;;;;;;;;;24.50;20.75;;;;;;;;5031766;28;11584;-68
2023/01/05 17:55:04;;;;;;;;;23.50;19.50;;;;;;;;5033357;28;12262;-68
2023/01/05 17:57:30;;;;;;;;;36.00;28.50;;;;;;;;5015842;28;8915;-67
2023/01/05 17:59:55;;;;;;;;;28.00;24.50;;;;;;;;5033036;28;8999;-69
2023/01/05 18:02:20;;;;;;;;;26.75;19.25;;;;;;;;5032983;28;8936;-69
2023/01/05 18:04:46;;;;;;;;;28.75;24.50;;;;;;;;5033095;28;8810;-67
2023/01/05 18:07:11;;;;;;;;;27.00;26.00;;;;;;;;5014990;28;8828;-68
2023/01/05 18:09:36;;;;;;;;;29.75;28.00;;;;;;;;5033196;28;8782;-68
2023/01/05 18:12:02;;;;;;;;;27.50;24.25;;;;;;;;5033048;28;8960;-68
2023/01/05 18:14:27;;;;;;;;;29.00;27.25;;;;;;;;5032968;28;8786;-67
2023/01/05 18:16:53;;;;;;;;;29.75;26.00;;;;;;;;5032694;28;8786;-67
2023/01/05 18:19:18;;;;;;;;;27.00;25.00;;;;;;;;5032607;28;8809;-68
2023/01/05 18:21:43;;;;;;;;;23.50;19.75;;;;;;;;5032405;28;8794;-67
2023/01/05 18:24:09;;;;;;;;;30.25;30.00;;;;;;;;5032597;28;8794;-69
2023/01/05 18:26:34;;;;;;;;;28.25;25.00;;;;;;;;5014909;28;8829;-68
2023/01/05 18:28:59;;;;;;;;;29.00;27.75;;;;;;;;5032646;28;8825;-67
2023/01/05 18:31:25;;;;;;;;;31.50;25.50;;;;;;;;5032451;28;8826;-68
2023/01/05 18:33:50;;;;;;;;;30.50;28.25;;;;;;;;5032550;28;8903;-67
2023/01/05 18:36:15;;;;;;;;;31.50;29.75;;;;;;;;5032366;28;8798;-69
2023/01/05 18:38:41;;;;;;;;;34.25;27.25;;;;;;;;5032536;28;8778;-69
2023/01/05 18:41:06;;;;;;;;;26.00;23.25;;;;;;;;5032647;28;8828;-70
2023/01/05 18:43:32;;;;;;;;;22.50;19.75;;;;;;;;5032430;28;8828;-68
2023/01/05 18:45:58;;;;;;;;;31.75;24.50;;;;;;;;5014566;28;8806;-68
2023/01/05 18:48:23;;;;;;;;;31.00;25.00;;;;;;;;5032068;28;8810;-68
2023/01/05 18:50:50;;;;;;;;;29.00;23.00;;;;;;;;5032167;28;8778;-70
2023/01/05 18:53:19;;;;;;;;;23.75;23.75;;;;;;;;5032225;28;8948;-69
2023/01/05 18:55:44;;;;;;;;;30.75;25.25;;;;;;;;5031872;28;12233;-68
2023/01/05 18:58:09;;;;;;;;;30.75;28.00;;;;;;;;5031976;28;11461;-69
2023/01/05 19:00:36;;;;;;;;;22.50;21.50;;;;;;;;5032069;28;8963;-68
2023/01/05 19:03:02;;;;;;;;;30.00;28.00;;;;;;;;5047533;28;8793;-70
2023/01/05 19:05:27;;;;;;;;;28.00;28.00;;;;;;;;5031452;28;11457;-67
2023/01/05 19:07:53;;;;;;;;;33.25;29.25;;;;;;;;5013111;28;8817;-71
2023/01/05 19:10:18;;;;;;;;;32.25;30.00;;;;;;;;5030462;28;8949;-69
2023/01/05 19:12:43;;;;;;;;;35.00;33.25;;;;;;;;5031746;28;8806;-68
2023/01/05 19:15:09;;;;;;;;;34.25;29.50;;;;;;;;5031641;28;8796;-70
2023/01/05 19:17:34;;;;;;;;;39.50;33.00;;;;;;;;5031839;28;8778;-68
2023/01/05 19:19:59;;;;;;;;;39.00;34.00;;;;;;;;5029465;28;9521;-69
2023/01/05 19:22:25;;;;;;;;;36.00;32.75;;;;;;;;5030748;28;8860;-69
2023/01/05 19:24:50;;;;;;;;;40.75;36.25;;;;;;;;5031580;28;8810;-67
2023/01/05 19:27:15;;;;;;;;;35.75;32.75;;;;;;;;5031748;28;8867;-68
2023/01/05 19:29:41;;;;;;;;;45.75;37.00;;;;;;;;5027909;28;8877;-69
2023/01/05 19:32:06;;;;;;;;;39.00;35.25;;;;;;;;5031352;28;8802;-70
2023/01/05 19:34:31;;;;;;;;;34.00;33.00;;;;;;;;5031254;28;8778;-70
2023/01/05 19:36:56;;;;;;;;;40.50;36.00;;;;;;;;5031254;28;8766;-69
2023/01/05 19:39:22;;;;;;;;;38.00;34.50;;;;;;;;5029673;28;8836;-68
2023/01/05 19:41:48;;;;;;;;;37.25;34.50;;;;;;;;5031255;28;8782;-69
2023/01/05 19:44:14;;;;;;;;;38.25;33.00;;;;;;;;5031151;28;8820;-69
2023/01/05 19:46:39;;;;;;;;;35.00;33.00;;;;;;;;5031159;28;8870;-70
2023/01/05 19:49:05;;;;;;;;;27.50;25.00;;;;;;;;5014624;28;12286;-68
2023/01/05 19:51:30;;;;;;;;;19.25;16.00;;;;;;;;5029445;28;8871;-69
2023/01/05 19:53:57;;;;;;;;;25.25;24.75;;;;;;;;5030791;28;9636;-69
2023/01/05 19:56:23;;;;;;;;;36.00;32.50;;;;;;;;5030715;28;8874;-68
2023/01/05 19:58:50;;;;;;;;;26.25;25.50;;;;;;;;5030254;28;11509;-67
2023/01/05 20:01:16;;;;;;;;;36.50;31.75;;;;;;;;5010799;28;11528;-67
2023/01/05 20:03:45;;;;;;;;;31.75;27.75;;;;;;;;5012664;28;11634;-68
2023/01/05 20:06:14;;;;;;;;;31.00;27.75;;;;;;;;5029777;28;8794;-69
2023/01/05 20:08:40;;;;;;;;;36.75;29.00;;;;;;;;5030225;28;11532;-68
2023/01/05 20:11:09;;;;;;;;;31.25;25.50;;;;;;;;5028658;28;11682;-68
2023/01/05 20:13:34;;;;;;;;;34.50;31.00;;;;;;;;5030475;28;8786;-69
2023/01/05 20:16:04;;;;;;;;;31.50;30.25;;;;;;;;5030321;28;11435;-68
2023/01/05 20:18:29;;;;;;;;;39.50;32.50;;;;;;;;5029492;28;8805;-68
2023/01/05 20:20:57;;;;;;;;;41.50;35.75;;;;;;;;5028405;28;11604;-69
2023/01/05 20:23:22;;;;;;;;;38.75;31.00;;;;;;;;5012599;28;8803;-67
2023/01/05 20:25:47;;;;;;;;;34.75;31.50;;;;;;;;5029941;28;11621;-66
2023/01/05 20:28:13;;;;;;;;;32.00;32.00;;;;;;;;5012573;28;8822;-68
2023/01/05 20:30:38;;;;;;;;;36.50;35.25;;;;;;;;5027936;28;8825;-67
2023/01/05 20:33:04;;;;;;;;;38.75;33.25;;;;;;;;5029984;28;8933;-68
2023/01/05 20:35:29;;;;;;;;;31.00;29.75;;;;;;;;5012166;28;9541;-68
2023/01/05 20:37:54;;;;;;;;;34.00;29.25;;;;;;;;5029908;28;8766;-66
2023/01/05 20:40:19;;;;;;;;;28.50;28.25;;;;;;;;5027742;28;8799;-68
2023/01/05 20:42:45;;;;;;;;;37.25;30.75;;;;;;;;5029557;28;8920;-68
2023/01/05 20:45:10;;;;;;;;;32.25;29.50;;;;;;;;5011814;28;8810;-67
2023/01/05 20:47:37;;;;;;;;;36.25;30.50;;;;;;;;5029631;28;8819;-67
2023/01/05 20:50:03;;;;;;;;;38.50;34.25;;;;;;;;5029396;28;8806;-67
2023/01/05 20:52:28;;;;;;;;;35.75;32.50;;;;;;;;5029775;28;11487;-67
2023/01/05 20:54:54;;;;;;;;;37.00;31.75;;;;;;;;5029731;28;8778;-67
2023/01/05 20:57:20;;;;;;;;;37.25;32.25;;;;;;;;5029893;28;8813;-67
2023/01/05 20:59:45;;;;;;;;;33.00;31.75;;;;;;;;5029336;28;11457;-67
2023/01/05 21:02:11;;;;;;;;;25.00;25.00;;;;;;;;5027762;28;9626;-67
2023/01/05 21:04:36;;;;;;;;;29.50;27.00;;;;;;;;5028987;28;8835;-67
2023/01/05 21:07:01;;;;;;;;;32.00;30.50;;;;;;;;5029627;28;8794;-70
2023/01/05 21:09:28;;;;;;;;;27.50;25.00;;;;;;;;5029634;28;8790;-69
2023/01/05 21:11:53;;;;;;;;;26.50;25.25;;;;;;;;5028341;28;8822;-70
2023/01/05 21:14:19;;;;;;;;;24.00;24.00;;;;;;;;5026744;28;11569;-68
2023/01/05 21:16:46;;;;;;;;;26.25;24.75;;;;;;;;5029112;28;9818;-71
2023/01/05 21:19:15;;;;;;;;;26.75;25.50;;;;;;;;5029240;28;8806;-69
2023/01/05 21:21:55;;;;;;;;;26.25;24.75;;;;;;;;4960157;28;11590;-75
2023/01/05 21:24:21;;;;;;;;;27.00;25.25;;;;;;;;4965010;28;11580;-74
2023/01/05 21:26:47;;;;;;;;;31.50;25.25;;;;;;;;4970314;28;11528;-77
2023/01/05 21:29:13;;;;;;;;;29.50;24.25;;;;;;;;4971178;28;8901;-76
2023/01/05 21:31:38;;;;;;;;;19.75;19.25;;;;;;;;4980264;28;8866;-74
2023/01/05 21:34:04;;;;;;;;;30.25;23.75;;;;;;;;4962464;28;11617;-76
2023/01/05 21:36:35;;;;;;;;;29.25;23.50;;;;;;;;4970315;28;8811;-80
2023/01/05 21:39:01;;;;;;;;;32.50;24.00;;;;;;;;4970428;28;8826;-74
2023/01/05 21:44:11;;;;;;;;;25.00;23.50;;;;;;;;4949097;28;11523;-78
2023/01/05 21:46:37;;;;;;;;;35.50;32.00;;;;;;;;4950761;29;12305;-75
2023/01/05 21:49:03;;;;;;;;;37.25;33.25;;;;;;;;4950845;28;9516;-73
2023/01/05 21:56:59;;;;;;;;;36.25;34.00;;;;;;;;4950896;29;11671;-73
2023/01/05 21:59:25;;;;;;;;;32.00;31.25;;;;;;;;4950653;29;11567;-73
2023/01/05 22:01:50;;;;;;;;;35.75;31.00;;;;;;;;4950115;28;11546;-74
2023/01/05 22:04:15;;;;;;;;;33.00;29.25;;;;;;;;4931458;29;8852;-75
2023/01/05 22:06:41;;;;;;;;;32.25;29.75;;;;;;;;4950701;28;8816;-77
2023/01/05 22:09:06;;;;;;;;;38.75;34.00;;;;;;;;4950590;29;8806;-78
2023/01/05 22:11:31;;;;;;;;;35.00;31.50;;;;;;;;4950127;28;8849;-76
2023/01/05 22:13:56;;;;;;;;;31.25;28.75;;;;;;;;4948988;28;8829;-75
2023/01/05 22:16:22;;;;;;;;;30.50;29.50;;;;;;;;4950132;29;8833;-77
2023/01/05 22:18:47;;;;;;;;;43.25;35.25;;;;;;;;4950301;29;8978;-78
2023/01/05 22:21:13;;;;;;;;;24.25;24.25;;;;;;;;4954081;28;8847;-79
2023/01/05 22:23:39;;;;;;;;;31.50;30.50;;;;;;;;4956274;28;8809;-78
2023/01/05 22:26:06;;;;;;;;;36.50;31.75;;;;;;;;4950283;29;11563;-77
2023/01/05 22:28:33;;;;;;;;;34.50;33.25;;;;;;;;4950537;28;8797;-78
2023/01/05 22:31:03;;;;;;;;;40.25;31.75;;;;;;;;4953825;28;11650;-82
2023/01/05 22:33:29;;;;;;;;;30.00;25.50;;;;;;;;4936720;28;11573;-75
2023/01/05 22:35:56;;;;;;;;;33.00;31.00;;;;;;;;4953784;28;12246;-78
2023/01/05 22:38:21;;;;;;;;;29.25;29.25;;;;;;;;4953921;28;11556;-76
2023/01/05 22:40:52;;;;;;;;;29.25;27.50;;;;;;;;4953669;28;11544;-75
2023/01/05 22:43:17;;;;;;;;;31.25;28.50;;;;;;;;4953991;28;8813;-75
2023/01/05 22:45:42;;;;;;;;;33.50;29.75;;;;;;;;4953750;28;11571;-74
2023/01/05 22:48:07;;;;;;;;;32.75;26.00;;;;;;;;4953578;28;8797;-74
2023/01/05 22:50:33;;;;;;;;;31.50;29.25;;;;;;;;4953505;28;8796;-74
2023/01/05 22:52:58;;;;;;;;;31.00;25.25;;;;;;;;4953654;28;8837;-74
2023/01/05 22:55:23;;;;;;;;;33.00;26.25;;;;;;;;4953712;28;8810;-74
2023/01/05 22:57:48;;;;;;;;;31.00;27.25;;;;;;;;4967800;28;8903;-74
2023/01/05 23:00:14;;;;;;;;;25.25;22.50;;;;;;;;4953545;28;8801;-74
2023/01/05 23:02:39;;;;;;;;;32.00;26.75;;;;;;;;4953503;28;9524;-75
2023/01/05 23:05:04;;;;;;;;;31.50;25.25;;;;;;;;4953316;28;9691;-74
2023/01/05 23:07:30;;;;;;;;;29.25;22.00;;;;;;;;4953406;28;8939;-75
2023/01/05 23:09:55;;;;;;;;;25.75;24.00;;;;;;;;4953235;28;8840;-74
2023/01/05 23:12:20;;;;;;;;;32.50;27.50;;;;;;;;4953368;28;8813;-75
2023/01/05 23:14:45;;;;;;;;;27.00;25.00;;;;;;;;4953074;28;8809;-74
2023/01/05 23:17:11;;;;;;;;;25.50;22.50;;;;;;;;4951574;28;9563;-75
2023/01/05 23:19:36;;;;;;;;;29.75;26.25;;;;;;;;4952566;28;8936;-75
2023/01/05 23:22:01;;;;;;;;;28.75;23.50;;;;;;;;4953137;28;8839;-76
2023/01/05 23:24:27;;;;;;;;;21.50;21.50;;;;;;;;4953139;28;8816;-75
2023/01/05 23:26:52;;;;;;;;;26.00;25.00;;;;;;;;4953143;28;8888;-75
2023/01/05 23:29:17;;;;;;;;;28.75;24.00;;;;;;;;4952849;28;8866;-73
2023/01/05 23:31:43;;;;;;;;;33.00;26.00;;;;;;;;4952936;28;8867;-74
2023/01/05 23:34:08;;;;;;;;;28.00;25.50;;;;;;;;4952337;28;8789;-74
2023/01/05 23:36:33;;;;;;;;;23.50;23.25;;;;;;;;4952995;28;8793;-74
2023/01/05 23:38:58;;;;;;;;;29.50;24.50;;;;;;;;4952797;28;8805;-75
2023/01/05 23:41:24;;;;;;;;;38.33;30.33;;;;;;;;4952832;28;8813;-75
2023/01/05 23:43:49;;;;;;;;;29.75;25.50;;;;;;;;4952957;28;8801;-75
2023/01/05 23:46:18;;;;;;;;;32.25;28.25;;;;;;;;4952756;28;8810;-75
2023/01/05 23:48:44;;;;;;;;;24.00;24.00;;;;;;;;4952622;28;8825;-74
2023/01/05 23:51:12;;;;;;;;;29.25;28.00;;;;;;;;4952617;28;11539;-75
2023/01/05 23:53:38;;;;;;;;;33.75;27.00;;;;;;;;4952213;28;8817;-75
2023/01/05 23:56:08;;;;;;;;;27.50;23.25;;;;;;;;4952556;28;11636;-74
2023/01/05 23:58:34;;;;;;;;;29.00;28.25;;;;;;;;4952399;28;11608;-75
